Aviation Digital Data Service (ADDS)

Output produced by METARs form (0716 UTC 23 May 2015)
found at http://www.aviationweather.gov/adds/metars/
 
KMDT 230656Z 32008KT 10SM CLR 11/M02 A3029 RMK AO2 SLP257 T01111022
KMDT 230556Z 33012KT 10SM CLR 13/M03 A3029 RMK AO2 SLP258 T01281028 10200 20128 51030
KMDT 230456Z 32010G20KT 10SM CLR 14/M01 A3026 RMK AO2 SLP248 T01391011 402280100
KMDT 230356Z 32012KT 10SM CLR 15/M03 A3024 RMK AO2 SLP240 T01501028
KMDT 230256Z 33012KT 10SM CLR 16/M05 A3020 RMK AO2 SLP227 T01611050 51042
KMDT 230156Z 32015G22KT 10SM CLR 18/M06 A3017 RMK AO2 SLP215 T01781056
KMDT 230056Z 31015G24KT 10SM FEW070 19/M04 A3012 RMK AO2 SLP199 T01941039
KMDT 222356Z 31017G29KT 10SM FEW070 21/M01 A3008 RMK AO2 PK WND 31030/2315 SLP184 T02061011 10228 20206 53019
KMDT 222256Z 30018G23KT 10SM FEW070 SCT090 21/03 A3004 RMK AO2 SLP173 T02110028
KMDT 222156Z 29015G25KT 10SM SCT070 SCT110 22/06 A3003 RMK AO2 SLP169 T02170056
KMDT 222056Z 29015KT 10SM SCT080 SCT120 22/06 A3002 RMK AO2 PK WND 30030/2025 SLP166 T02220061 53004
KMDT 221956Z 31018G26KT 10SM SCT075 SCT095 23/06 A3001 RMK AO2 PK WND 31029/1907 SLP163 T02280056
KMDT 221856Z 31022G27KT 10SM SCT075 BKN090 BKN250 22/06 A3001 RMK AO2 PK WND 32027/1855 SLP163 T02220061
KMDT 221756Z 31014G23KT 10SM SCT050 SCT110 22/06 A3001 RMK AO2 PK WND 29028/1715 SLP162 T02170056 10222 20133 58007
KMDT 221656Z 29014G22KT 10SM SCT050 21/06 A3001 RMK AO2 PK WND 28032/1640 SLP164 T02110061
KMDT 221556Z 30016KT 10SM SCT050 BKN100 19/05 A3003 RMK AO2 SLP170 T01940050
KMDT 221456Z 30015G25KT 10SM FEW100 19/05 A3003 RMK AO2 SLP169 T01940050 51007
KMDT 221356Z 29012KT 10SM CLR 18/06 A3003 RMK AO2 SLP169 T01780061
KMDT 221256Z 30013KT 10SM CLR 15/06 A3002 RMK AO2 SLP166 T01500056
KMDT 221156Z 30013KT 10SM CLR 13/06 A3001 RMK AO2 SLP163 T01330056 10133 20100 51015
KMDT 221056Z 32010KT 10SM CLR 11/05 A3000 RMK AO2 SLP159 T01110050
KMDT 220956Z 32008KT 10SM CLR 11/05 A2999 RMK AO2 SLP155 T01060050
KMDT 220856Z 30006KT 10SM FEW080 11/06 A2996 RMK AO2 SLP148 T01110056 53010
KMDT 220756Z 29010KT 10SM BKN080 12/06 A2995 RMK AO2 SLP142 T01220061
KMDT 220656Z 29011KT 10SM FEW070 BKN085 12/07 A2993 RMK AO2 SLP138 T01220067
KMDT 220556Z 28010KT 10SM FEW040 FEW075 12/08 A2993 RMK AO2 SLP137 60000 T01170078 10139 20111 58001
KMDT 220456Z 30006KT 10SM FEW018 SCT045 SCT065 12/08 A2994 RMK AO2 SLP139 T01170083 401500117
KMDT 220356Z 30011KT 10SM FEW018 OVC050 12/08 A2994 RMK AO2 SLP139 T01220083
KMDT 220256Z 31010KT 10SM FEW030 BKN075 OVC110 13/08 A2994 RMK AO2 SLP138 60000 T01280083 51004
KMDT 220156Z 30008KT 10SM BKN037 BKN075 OVC110 13/08 A2993 RMK AO2 RAB18E28 SLP138 P0000 T01280078
KMDT 220056Z 28007KT 10SM OVC037 13/07 A2993 RMK AO2 SLP136 VCSH T01330072
KMDT 212356Z 27006KT 10SM OVC034 14/07 A2992 RMK AO2 SLP134 T01390072 10150 20139 53004
KMDT 212256Z 26006KT 10SM OVC040 14/07 A2991 RMK AO2 SLP131 T01390072
KMDT 212156Z 00000KT 10SM OVC043 14/05 A2991 RMK AO2 SLP129 T01440050
KMDT 212056Z 00000KT 10SM BKN047 OVC065 14/05 A2991 RMK AO2 SLP130 T01440050 56018
KMDT 211956Z 10003KT 10SM BKN050 OVC070 14/05 A2992 RMK AO2 SLP133 T01440050